Time;durP1;ratioP1;P1;durP2;ratioP2;P2;SDS_P1;SDS_P2;PMS_P1;PMS_P2;Temp;Humidity;BMP_temperature;BMP_pressure;BME280_temperature;BME280_humidity;BME280_pressure;Samples;Min_cycle;Max_cycle;Signal;HPM_P1;HPM_P2
2022/01/26 00:06:00;;;;;;;25.15;11.57;;;;;;;3.07;95.87;101831.23;1692254;83;25821;-71
2022/01/26 00:08:25;;;;;;;20.72;11.05;;;;;;;3.07;95.91;101824.61;1701806;82;99052;-70
2022/01/26 00:10:50;;;;;;;23.18;10.65;;;;;;;3.10;95.97;101832.58;1704503;83;26126;-71
2022/01/26 00:13:15;;;;;;;17.82;9.45;;;;;;;3.12;95.96;101833.91;1709013;83;98899;-68
2022/01/26 00:15:41;;;;;;;20.40;9.98;;;;;;;3.13;95.99;101831.27;1703658;82;27370;-68
2022/01/26 00:18:07;;;;;;;18.50;8.95;;;;;;;3.14;96.03;101819.80;1707855;82;25689;-70
2022/01/26 00:20:46;;;;;;;18.62;10.10;;;;;;;3.14;96.02;101817.59;1707268;83;98478;-68
2022/01/26 00:26:05;;;;;;;17.62;8.38;;;;;;;3.15;96.03;101812.73;1707902;83;98360;-69
2022/01/26 00:28:35;;;;;;;17.23;7.85;;;;;;;3.14;96.06;101816.27;1705726;83;27475;-69
2022/01/26 00:38:55;;;;;;;15.03;7.47;;;;;;;3.15;96.16;101807.00;1706417;83;98300;-70
2022/01/26 00:41:33;;;;;;;19.27;7.15;;;;;;;3.13;96.11;101802.57;1707621;82;27486;-70
2022/01/26 00:43:56;;;;;;;12.70;7.45;;;;;;;3.13;96.13;101798.16;1700349;82;98548;-69
2022/01/26 00:46:20;;;;;;;13.38;6.42;;;;;;;3.13;96.14;101791.53;1708769;82;25760;-70
2022/01/26 00:48:49;;;;;;;13.18;6.28;;;;;;;3.15;96.14;101803.47;1701800;83;98684;-70
2022/01/26 00:51:17;;;;;;;13.15;6.75;;;;;;;3.13;96.08;101793.30;1708172;83;25936;-69
2022/01/26 00:53:47;;;;;;;10.60;5.42;;;;;;;3.12;96.08;101801.69;1703249;82;27448;-70
2022/01/26 00:56:13;;;;;;;10.85;6.33;;;;;;;3.13;96.09;101798.59;1700689;82;98584;-71
2022/01/26 00:58:39;;;;;;;12.63;6.58;;;;;;;3.13;96.14;101793.30;1705364;82;26363;-70
2022/01/26 01:01:05;;;;;;;9.83;5.55;;;;;;;3.13;96.14;101799.92;1660088;83;99032;-70
2022/01/26 01:03:38;;;;;;;12.73;6.50;;;;;;;3.13;96.11;101796.83;1658676;84;26505;-70
2022/01/26 01:06:12;;;;;;;11.55;6.33;;;;;;;3.12;96.08;101800.36;1670894;83;27387;-70
2022/01/26 01:08:33;;;;;;;;;;;;;;;3.11;96.08;101791.08;1665097;84;98562;-70
2022/01/26 01:10:59;;;;;;;12.63;6.62;;;;;;;3.10;96.07;101790.63;1673583;83;26384;-70
2022/01/26 01:13:35;;;;;;;13.72;6.10;;;;;;;3.08;96.11;101787.09;1669543;83;98839;-70
2022/01/26 01:16:01;;;;;;;12.25;6.05;;;;;;;3.09;96.09;101795.48;1672641;84;26080;-70
2022/01/26 01:18:43;;;;;;;13.72;6.60;;;;;;;3.08;96.11;101793.72;1670337;83;28036;-70
2022/01/26 01:24:18;;;;;;;12.05;5.72;;;;;;;3.10;96.13;101786.66;1664435;83;25869;-70
2022/01/26 01:26:54;;;;;;;12.03;6.33;;;;;;;3.09;96.12;101787.53;1660629;85;99013;-70
2022/01/26 01:29:35;;;;;;;14.23;7.22;;;;;;;3.08;96.12;101785.77;1673598;83;25903;-70
2022/01/26 01:31:58;;;;;;;14.13;6.65;;;;;;;3.09;96.17;101781.80;1657161;85;98594;-70
2022/01/26 01:34:29;;;;;;;16.12;7.90;;;;;;;3.09;96.19;101777.83;1704906;82;25766;-70
2022/01/26 01:37:02;;;;;;;14.53;7.10;;;;;;;3.10;96.21;101784.02;1706793;82;99195;-70
2022/01/26 01:39:23;;;;;;;17.07;8.53;;;;;;;3.11;96.20;101787.11;1709555;82;25851;-70
2022/01/26 01:41:51;;;;;;;13.88;7.15;;;;;;;3.10;96.22;101784.89;1707449;82;25475;-70
2022/01/26 01:44:18;;;;;;;13.43;7.12;;;;;;;3.12;96.22;101788.44;1707844;82;98520;-69
2022/01/26 01:46:45;;;;;;;14.75;7.83;;;;;;;3.12;96.21;101786.23;1708637;82;25962;-70
2022/01/26 01:49:14;;;;;;;17.30;8.95;;;;;;;3.11;96.21;101775.19;1708885;82;98650;-70
2022/01/26 01:51:45;;;;;;;16.73;8.80;;;;;;;3.13;96.23;101782.70;1712664;82;25802;-70
2022/01/26 01:54:13;;;;;;;17.07;8.38;;;;;;;3.16;96.23;101774.77;1707236;82;25757;-70
2022/01/26 01:56:39;;;;;;;17.77;9.43;;;;;;;3.14;96.21;101774.77;1712377;82;98573;-70
2022/01/26 01:59:06;;;;;;;21.73;10.78;;;;;;;3.14;96.23;101776.09;1709961;82;26361;-70
2022/01/26 02:01:32;;;;;;;16.80;9.80;;;;;;;3.15;96.27;101771.67;1707436;82;98704;-70
2022/01/26 02:03:58;;;;;;;20.12;10.13;;;;;;;3.16;96.26;101771.69;1705059;83;25929;-70
2022/01/26 02:06:23;;;;;;;20.97;9.63;;;;;;;3.17;96.28;101764.63;1706245;82;25747;-70
2022/01/26 02:08:49;;;;;;;20.08;10.18;;;;;;;3.17;96.25;101768.16;1704015;82;98342;-70
2022/01/26 02:11:16;;;;;;;20.20;9.60;;;;;;;3.18;96.27;101765.07;1708264;83;25793;-70
2022/01/26 02:14:01;;;;;;;20.15;10.58;;;;;;;3.17;96.29;101768.59;1707143;83;98483;-70
2022/01/26 02:16:28;;;;;;;18.07;9.33;;;;;;;3.17;96.36;101765.51;1698943;82;26538;-70
2022/01/26 02:21:55;;;;;;;21.10;10.50;;;;;;;3.16;96.37;101757.55;1706691;83;27485;-71
2022/01/26 02:51:29;;;;;;;16.75;9.48;;;;;;;3.10;96.43;101752.23;1644886;83;25958;-71
2022/01/26 02:56:36;;;;;;;18.87;8.95;;;;;;;3.09;96.43;101757.96;1703433;83;98619;-70
2022/01/26 02:59:10;;;;;;;19.87;8.50;;;;;;;3.10;96.45;101753.55;1699825;83;26294;-70
2022/01/26 03:04:16;;;;;;;17.67;8.95;;;;;;;3.10;96.45;101760.17;1718359;83;25807;-70
2022/01/26 03:06:33;;;;;;;17.17;7.85;;;;;;;3.11;96.46;101756.20;1761426;80;25797;-72
2022/01/26 03:08:59;;;;;;;16.93;8.53;;;;;;;3.11;96.46;101752.23;1763881;80;98306;-70
2022/01/26 03:11:25;;;;;;;16.67;8.03;;;;;;;3.13;96.51;101753.13;1766415;79;25783;-69
2022/01/26 03:13:54;;;;;;;19.25;8.13;;;;;;;3.14;96.50;101755.34;1762727;79;98501;-70
2022/01/26 03:16:25;;;;;;;16.70;7.80;;;;;;;3.14;96.49;101752.69;1764173;79;26016;-70
2022/01/26 03:21:17;;;;;;;13.20;7.92;;;;;;;3.16;96.50;101751.81;1763583;80;25933;-70
2022/01/26 03:29:27;;;;;;;13.55;6.60;;;;;;;3.19;96.50;101744.32;1723958;81;26399;-70
2022/01/26 03:34:18;;;;;;;10.70;6.78;;;;;;;3.20;96.52;101748.74;1711064;81;26467;-70
2022/01/26 03:36:55;;;;;;;12.20;6.50;;;;;;;3.21;96.57;101749.19;1707090;82;97840;-70
2022/01/26 03:39:19;;;;;;;11.30;6.65;;;;;;;3.23;96.59;101749.64;1706836;81;27467;-70
2022/01/26 03:41:50;;;;;;;17.45;8.15;;;;;;;3.25;96.61;101740.38;1710565;81;25848;-70
2022/01/26 03:44:16;;;;;;;17.15;7.87;;;;;;;3.24;96.56;101739.48;1754364;79;98527;-70
2022/01/26 03:46:45;;;;;;;16.32;7.97;;;;;;;3.26;96.59;101732.43;1764445;79;25880;-70
2022/01/26 03:49:12;;;;;;;28.30;11.95;;;;;;;3.26;96.56;101736.84;1762302;80;98701;-71
2022/01/26 03:51:40;;;;;;;26.62;10.70;;;;;;;3.26;96.54;101736.84;1681974;83;27380;-71
2022/01/26 03:54:08;;;;;;;23.20;10.35;;;;;;;3.27;96.54;101738.61;1703815;83;25810;-71
2022/01/26 03:56:35;;;;;;;20.85;9.88;;;;;;;3.28;96.59;101739.50;1703533;83;98677;-71
2022/01/26 03:59:01;;;;;;;18.95;9.10;;;;;;;3.29;96.60;101737.30;1714590;83;25782;-70
2022/01/26 04:01:27;;;;;;;26.87;10.63;;;;;;;3.31;96.62;101736.86;1704475;82;98490;-70
2022/01/26 04:03:53;;;;;;;31.00;12.50;;;;;;;3.32;96.62;101731.56;1708277;82;27430;-70
2022/01/26 04:06:19;;;;;;;20.40;9.93;;;;;;;3.34;96.62;101728.92;1711078;83;25708;-70
2022/01/26 04:08:46;;;;;;;19.20;9.38;;;;;;;3.35;96.61;101740.86;1709947;83;98635;-70
2022/01/26 04:13:50;;;;;;;20.30;10.72;;;;;;;3.36;96.63;101730.70;1705858;82;98734;-70
2022/01/26 04:16:17;;;;;;;26.80;12.00;;;;;;;3.38;96.64;101733.36;1707024;83;27367;-71
2022/01/26 04:18:43;;;;;;;22.25;10.75;;;;;;;3.36;96.66;101732.03;1702721;83;98811;-70
2022/01/26 04:21:20;;;;;;;24.30;11.70;;;;;;;3.38;96.69;101727.62;1711325;82;25968;-70
2022/01/26 04:24:01;;;;;;;19.25;9.53;;;;;;;3.37;96.67;101732.47;1706416;82;25839;-70
2022/01/26 04:26:31;;;;;;;21.77;11.53;;;;;;;3.37;96.73;101720.98;1703364;83;98572;-70
2022/01/26 04:28:58;;;;;;;18.50;9.53;;;;;;;3.37;96.80;101725.84;1699849;83;27503;-70
2022/01/26 04:31:21;;;;;;;22.13;10.85;;;;;;;3.39;96.79;101724.52;1708319;83;98564;-70
2022/01/26 04:33:50;;;;;;;19.10;10.80;;;;;;;3.38;96.81;101718.78;1709860;82;25804;-70
2022/01/26 04:36:24;;;;;;;17.00;10.25;;;;;;;3.39;96.84;101717.91;1701879;83;25785;-70
2022/01/26 04:38:50;;;;;;;27.32;12.55;;;;;;;3.38;96.87;101715.69;1700902;82;98701;-70
2022/01/26 04:41:27;;;;;;;19.57;9.98;;;;;;;3.39;96.88;101712.59;1704170;83;27508;-70
2022/01/26 04:43:45;;;;;;;19.55;9.53;;;;;;;3.36;96.85;101712.59;1704769;83;98547;-70
2022/01/26 04:46:10;;;;;;;18.15;9.45;;;;;;;3.37;96.87;101714.36;1680873;83;26462;-70
2022/01/26 04:48:37;;;;;;;18.30;9.33;;;;;;;3.37;96.88;101707.73;1704134;82;98611;-70
2022/01/26 04:51:03;;;;;;;18.30;9.25;;;;;;;3.34;96.88;101703.31;1675767;83;25710;-70
2022/01/26 04:53:29;;;;;;;15.00;8.23;;;;;;;3.34;96.89;101706.41;1704757;82;27461;-70
2022/01/26 04:55:55;;;;;;;20.82;9.75;;;;;;;3.34;96.91;101701.98;1702348;83;98495;-70
2022/01/26 04:58:21;;;;;;;17.57;8.93;;;;;;;3.33;96.92;101696.69;1675417;83;25828;-69
2022/01/26 05:00:47;;;;;;;17.98;8.93;;;;;;;3.33;96.99;101697.56;1705867;83;98751;-70
2022/01/26 05:03:13;;;;;;;18.62;8.15;;;;;;;3.34;97.01;101689.17;1670605;83;25800;-70
2022/01/26 05:05:39;;;;;;;19.92;8.53;;;;;;;3.34;97.03;101695.36;1683870;85;27397;-70
2022/01/26 05:08:06;;;;;;;16.80;7.80;;;;;;;3.34;97.09;101686.09;1677349;84;98533;-71
2022/01/26 05:10:32;;;;;;;20.05;9.45;;;;;;;3.35;97.12;101682.55;1679896;83;25713;-71
2022/01/26 05:12:58;;;;;;;16.67;9.28;;;;;;;3.36;97.12;101683.00;1677782;84;98737;-69
2022/01/26 05:15:25;;;;;;;16.75;8.40;;;;;;;3.36;97.13;101681.67;1677450;83;26085;-69
2022/01/26 05:17:51;;;;;;;18.62;9.05;;;;;;;3.36;97.19;101683.00;1679015;85;27455;-69
2022/01/26 05:20:19;;;;;;;17.45;9.35;;;;;;;3.38;97.22;101690.52;1676447;83;98498;-70
2022/01/26 05:22:45;;;;;;;17.25;8.68;;;;;;;3.39;97.23;101688.31;1682955;83;25974;-70
2022/01/26 05:25:13;;;;;;;18.67;7.60;;;;;;;3.38;97.24;101678.59;1676059;83;98643;-70
2022/01/26 05:27:39;;;;;;;20.05;9.50;;;;;;;3.39;97.28;101679.48;1680581;83;26369;-70
2022/01/26 05:30:08;;;;;;;19.70;9.10;;;;;;;3.38;97.25;101676.38;1679551;83;27379;-70
2022/01/26 05:32:34;;;;;;;15.63;8.75;;;;;;;3.38;97.31;101680.36;1676187;84;98515;-70
2022/01/26 05:35:00;;;;;;;15.25;8.33;;;;;;;3.40;97.40;101672.85;1681802;85;25822;-70
2022/01/26 05:37:26;;;;;;;18.10;8.13;;;;;;;3.43;97.47;101687.44;1678286;83;98517;-70
2022/01/26 05:39:52;;;;;;;18.10;8.63;;;;;;;3.43;97.48;101671.98;1677934;83;25839;-70
2022/01/26 05:42:18;;;;;;;17.60;8.18;;;;;;;3.42;97.52;101673.74;1679448;83;28468;-70
2022/01/26 05:44:45;;;;;;;12.20;7.12;;;;;;;3.43;97.54;101677.27;1676565;83;98506;-70
2022/01/26 05:47:16;;;;;;;14.38;7.83;;;;;;;3.43;97.56;101679.93;1680989;85;26590;-71
2022/01/26 05:49:39;;;;;;;16.35;7.22;;;;;;;3.42;97.57;101668.44;1674449;84;99026;-71
2022/01/26 05:52:05;;;;;;;12.85;7.33;;;;;;;3.44;97.62;101671.09;1679999;84;25729;-72
2022/01/26 05:54:30;;;;;;;15.28;8.30;;;;;;;3.44;97.62;101668.45;1680207;85;27476;-72
2022/01/26 05:56:56;;;;;;;14.05;7.67;;;;;;;3.44;97.65;101669.77;1680033;83;97439;-72
2022/01/26 05:59:22;;;;;;;15.88;7.85;;;;;;;3.43;97.68;101667.56;1675578;83;25851;-69
2022/01/26 06:01:49;;;;;;;18.07;7.45;;;;;;;3.45;97.73;101676.41;1678334;83;98510;-71
2022/01/26 06:04:14;;;;;;;14.80;8.18;;;;;;;3.45;97.78;101668.89;1701338;83;25813;-71
2022/01/26 06:06:40;;;;;;;16.35;7.62;;;;;;;3.45;97.83;101663.15;1708094;83;98589;-72
2022/01/26 06:09:06;;;;;;;15.25;7.97;;;;;;;3.45;97.86;101660.50;1703210;83;25986;-69
2022/01/26 06:11:32;;;;;;;17.57;8.88;;;;;;;3.45;97.88;101652.98;1677797;83;25705;-69
2022/01/26 06:13:58;;;;;;;23.85;10.63;;;;;;;3.45;97.94;101657.84;1677964;83;98607;-70
2022/01/26 06:16:24;;;;;;;22.20;10.45;;;;;;;3.46;97.96;101657.41;1686199;83;26406;-70
2022/01/26 06:18:50;;;;;;;17.37;8.03;;;;;;;3.45;97.97;101658.28;1711585;82;98762;-70
2022/01/26 06:21:16;;;;;;;16.60;8.65;;;;;;;3.45;98.01;101673.75;1685644;83;26473;-70
2022/01/26 06:23:42;;;;;;;21.23;8.88;;;;;;;3.44;98.03;101670.66;1676414;85;25986;-70
2022/01/26 06:26:08;;;;;;;23.38;10.78;;;;;;;3.45;98.11;101676.84;1708119;83;98519;-70
2022/01/26 06:28:34;;;;;;;20.80;9.73;;;;;;;3.45;98.13;101663.15;1708229;82;25781;-70
2022/01/26 06:31:08;;;;;;;23.15;10.05;;;;;;;3.46;98.13;101668.01;1703889;82;97712;-70
2022/01/26 06:33:33;;;;;;;18.15;8.40;;;;;;;3.46;98.13;101667.56;1701623;83;25931;-70
2022/01/26 06:36:00;;;;;;;18.77;8.18;;;;;;;3.45;98.14;101662.27;1704702;83;25891;-70
2022/01/26 06:38:28;;;;;;;20.02;9.30;;;;;;;3.45;98.16;101668.89;1707871;83;98484;-70
2022/01/26 06:40:56;;;;;;;17.50;8.73;;;;;;;3.45;98.20;101662.27;1704452;83;25906;-70
2022/01/26 06:43:24;;;;;;;18.32;8.90;;;;;;;3.45;98.22;101671.09;1669013;83;98534;-70
2022/01/26 06:45:56;;;;;;;15.68;8.78;;;;;;;3.43;98.22;101670.21;1699538;83;25766;-70
2022/01/26 06:51:04;;;;;;;21.05;8.90;;;;;;;3.44;98.26;101666.68;1705840;82;98366;-71
2022/01/26 06:53:30;;;;;;;29.45;11.43;;;;;;;3.44;98.25;101663.14;1709313;82;25765;-70
2022/01/26 06:55:57;;;;;;;22.85;9.95;;;;;;;3.43;98.25;101656.96;1705281;83;98741;-71
2022/01/26 06:58:24;;;;;;;21.87;9.98;;;;;;;3.44;98.27;101658.73;1703533;82;26473;-72
2022/01/26 07:00:49;;;;;;;23.98;9.23;;;;;;;3.45;98.27;101667.56;1697548;82;99035;-70
2022/01/26 07:03:17;;;;;;;23.47;9.80;;;;;;;3.44;98.28;101674.63;1704921;83;25990;-71
2022/01/26 07:05:44;;;;;;;19.10;8.83;;;;;;;3.44;98.29;101659.17;1708450;82;25619;-70
2022/01/26 07:08:10;;;;;;;24.55;10.03;;;;;;;3.44;98.29;101657.84;1703602;82;98901;-71
2022/01/26 07:10:36;;;;;;;22.35;10.55;;;;;;;3.43;98.31;101658.28;1704523;82;25741;-70
2022/01/26 07:13:02;;;;;;;21.55;9.95;;;;;;;3.43;98.30;101652.98;1707355;82;99300;-70
2022/01/26 07:23:45;;;;;;;23.30;9.63;;;;;;;3.41;98.38;101652.09;1682599;83;25958;-70
2022/01/26 07:26:11;;;;;;;21.62;9.50;;;;;;;3.42;98.40;101667.55;1709571;83;98571;-69
2022/01/26 07:28:39;;;;;;;19.40;8.08;;;;;;;3.42;98.38;101661.81;1705768;82;26004;-72
2022/01/26 07:31:07;;;;;;;24.40;8.83;;;;;;;3.41;98.41;101671.97;1706883;82;99196;-71
2022/01/26 07:33:33;;;;;;;21.80;8.90;;;;;;;3.41;98.42;101661.81;1705672;81;27397;-73
2022/01/26 07:36:00;;;;;;;22.65;9.55;;;;;;;3.40;98.43;101666.23;1677271;83;26119;-76
2022/01/26 07:38:27;;;;;;;20.90;8.90;;;;;;;3.42;98.45;101660.93;1707121;82;98413;-73
2022/01/26 07:40:54;;;;;;;17.85;8.78;;;;;;;3.41;98.47;101669.32;1708140;82;25825;-72
2022/01/26 07:43:22;;;;;;;21.15;9.50;;;;;;;3.42;98.45;101660.49;1708843;82;98630;-72
2022/01/26 07:45:48;;;;;;;23.20;9.90;;;;;;;3.40;98.45;101662.70;1676713;83;28172;-73
2022/01/26 07:48:14;;;;;;;21.23;10.05;;;;;;;3.41;98.47;101659.16;1677993;83;25769;-73
2022/01/26 07:50:40;;;;;;;20.37;8.63;;;;;;;3.41;98.48;101661.38;1708242;82;98727;-73
2022/01/26 07:53:11;;;;;;;17.90;8.50;;;;;;;3.42;98.50;101669.77;1708907;83;25872;-73
2022/01/26 07:55:36;;;;;;;17.85;8.65;;;;;;;3.44;98.53;101669.33;1693615;83;98549;-73
2022/01/26 07:58:02;;;;;;;16.20;8.60;;;;;;;3.45;98.51;101667.13;1688080;82;27448;-73
2022/01/26 08:00:28;;;;;;;17.27;8.43;;;;;;;3.44;98.51;101677.72;1672742;83;26586;-73
2022/01/26 08:02:56;;;;;;;20.72;9.43;;;;;;;3.44;98.55;101671.98;1695148;82;98444;-73
2022/01/26 08:05:22;;;;;;;26.17;10.65;;;;;;;3.42;98.53;101669.77;1721832;81;25903;-75
2022/01/26 08:07:48;;;;;;;20.88;9.58;;;;;;;3.43;98.53;101690.09;1703685;81;99121;-74
2022/01/26 08:10:13;;;;;;;18.95;9.00;;;;;;;3.43;98.56;101673.30;1713107;81;27461;-72
2022/01/26 08:12:39;;;;;;;25.32;9.55;;;;;;;3.44;98.58;101679.94;1711173;81;25856;-72
2022/01/26 08:15:10;;;;;;;14.65;7.15;;;;;;;3.42;98.55;101676.39;1711040;81;98577;-73
2022/01/26 08:17:37;;;;;;;15.85;8.35;;;;;;;3.42;98.57;101676.39;1715571;81;26756;-73
2022/01/26 08:20:05;;;;;;;16.15;8.38;;;;;;;3.42;98.60;101669.77;1714502;82;98501;-73
2022/01/26 08:22:32;;;;;;;15.72;7.70;;;;;;;3.42;98.59;101682.13;1763687;79;27452;-74
2022/01/26 08:24:58;;;;;;;15.15;8.03;;;;;;;3.41;98.57;101684.34;1764039;79;98516;-74
2022/01/26 08:27:27;;;;;;;15.88;7.08;;;;;;;3.41;98.58;101678.59;1768202;80;25812;-74
2022/01/26 08:29:57;;;;;;;16.77;8.75;;;;;;;3.41;98.61;101672.41;1757068;79;25865;-74
2022/01/26 08:32:19;;;;;;;16.65;7.87;;;;;;;3.41;98.63;101679.04;1721402;81;98636;-74
2022/01/26 08:34:46;;;;;;;15.68;8.03;;;;;;;3.41;98.62;101686.98;1715874;81;27389;-73
2022/01/26 08:37:12;;;;;;;13.18;7.53;;;;;;;3.41;98.62;101682.58;1717778;81;99050;-74
2022/01/26 08:39:38;;;;;;;13.50;7.75;;;;;;;3.42;98.61;101684.34;1723043;81;25860;-74
2022/01/26 08:42:06;;;;;;;11.75;7.08;;;;;;;3.43;98.63;101682.14;1714627;83;25776;-74
2022/01/26 08:44:33;;;;;;;13.43;7.45;;;;;;;3.45;98.66;101692.30;1717284;83;97855;-73
2022/01/26 08:46:59;;;;;;;22.58;9.28;;;;;;;3.47;98.64;101700.25;1715144;83;27521;-72
2022/01/26 08:49:25;;;;;;;14.75;7.22;;;;;;;3.46;98.60;101681.26;1761342;79;98626;-73
2022/01/26 08:51:52;;;;;;;10.35;6.53;;;;;;;3.46;98.61;101678.17;1761698;79;25889;-74
2022/01/26 08:54:22;;;;;;;12.85;7.37;;;;;;;3.46;98.61;101675.52;1761320;79;26315;-75
2022/01/26 08:56:50;;;;;;;13.72;7.30;;;;;;;3.48;98.60;101675.08;1740774;80;98557;-76
2022/01/26 08:59:19;;;;;;;10.18;6.55;;;;;;;3.50;98.64;101673.31;1764976;79;27448;-73
2022/01/26 09:01:45;;;;;;;13.22;6.50;;;;;;;3.53;98.61;101672.44;1757696;79;98473;-74
2022/01/26 09:04:11;;;;;;;11.15;6.70;;;;;;;3.54;98.56;101677.74;1758020;79;25802;-74
2022/01/26 09:06:49;;;;;;;10.30;6.03;;;;;;;3.55;98.54;101689.23;1760178;79;26590;-75
2022/01/26 09:09:08;;;;;;;12.70;6.05;;;;;;;3.54;98.50;101681.72;1757705;79;98834;-73
2022/01/26 09:11:37;;;;;;;10.58;6.12;;;;;;;3.55;98.48;101675.54;1754587;79;27443;-74
2022/01/26 09:14:08;;;;;;;9.98;5.70;;;;;;;3.57;98.48;101671.56;1756444;80;98900;-74
2022/01/26 09:16:31;;;;;;;8.25;5.10;;;;;;;3.58;98.47;101676.87;1753730;80;26234;-74
2022/01/26 09:19:02;;;;;;;11.48;5.22;;;;;;;3.58;98.39;101680.84;1755533;81;98456;-75
2022/01/26 09:21:25;;;;;;;10.20;4.53;;;;;;;3.58;98.37;101687.47;1759583;80;26037;-75
2022/01/26 09:23:52;;;;;;;8.23;5.28;;;;;;;3.59;98.30;101685.70;1753835;79;28167;-75
2022/01/26 09:26:19;;;;;;;11.55;6.35;;;;;;;3.56;98.24;101689.23;1753039;79;97572;-75
2022/01/26 09:28:45;;;;;;;14.13;5.95;;;;;;;3.57;98.21;101684.81;1756379;80;26085;-75
2022/01/26 09:31:11;;;;;;;10.53;5.30;;;;;;;3.55;98.13;101687.47;1751780;79;98624;-74
2022/01/26 09:33:37;;;;;;;10.38;5.45;;;;;;;3.56;98.07;101673.77;1754044;81;25806;-75
2022/01/26 09:36:04;;;;;;;9.00;5.25;;;;;;;3.55;98.00;101682.61;1761147;79;28014;-75
2022/01/26 09:38:29;;;;;;;8.75;5.92;;;;;;;3.54;97.94;101680.84;1755435;79;98431;-75
2022/01/26 09:40:55;;;;;;;11.10;6.62;;;;;;;3.51;97.93;101670.23;1750718;81;25759;-75
2022/01/26 09:43:21;;;;;;;11.85;6.53;;;;;;;3.50;97.91;101669.34;1754141;79;98702;-75
2022/01/26 09:45:47;;;;;;;11.08;6.08;;;;;;;3.50;97.88;101677.30;1757322;80;25840;-74
2022/01/26 09:48:14;;;;;;;15.08;7.12;;;;;;;3.47;97.82;101678.61;1756092;80;28069;-75
2022/01/26 09:50:43;;;;;;;11.88;6.35;;;;;;;3.47;97.78;101677.29;1752652;79;98571;-74
2022/01/26 09:53:11;;;;;;;10.85;6.22;;;;;;;3.46;97.76;101672.87;1754947;80;25945;-74
2022/01/26 09:55:43;;;;;;;11.97;6.80;;;;;;;3.46;97.72;101673.31;1751203;80;98473;-75
2022/01/26 09:58:11;;;;;;;14.35;7.60;;;;;;;3.45;97.67;101676.41;1756293;79;26166;-74
2022/01/26 10:00:37;;;;;;;15.98;7.60;;;;;;;3.43;97.63;101676.84;1759905;79;27440;-75
2022/01/26 10:03:05;;;;;;;18.27;7.55;;;;;;;3.45;97.65;101679.05;1755539;80;98820;-73
2022/01/26 10:05:44;;;;;;;14.38;8.05;;;;;;;3.47;97.62;101685.68;1758653;80;25736;-73
2022/01/26 10:19:06;;;;;;;14.30;8.25;;;;;;;3.37;97.40;101683.89;1759955;80;98747;-73
2022/01/26 10:21:32;;;;;;;16.37;8.65;;;;;;;3.34;97.42;101672.84;1764106;80;25893;-72
2022/01/26 10:24:08;;;;;;;16.50;8.70;;;;;;;3.32;97.40;101673.72;1760634;81;25847;-72
2022/01/26 10:26:34;;;;;;;17.15;8.43;;;;;;;3.30;97.41;101668.41;1752071;81;98495;-72
2022/01/26 10:29:03;;;;;;;21.12;9.30;;;;;;;3.33;97.43;101667.53;1757016;80;26861;-74
2022/01/26 10:31:34;;;;;;;18.52;8.28;;;;;;;3.32;97.38;101686.52;1763260;80;98589;-71
2022/01/26 10:34:13;;;;;;;16.70;8.90;;;;;;;3.29;97.26;101661.34;1766381;79;26331;-71
2022/01/26 10:36:48;;;;;;;13.98;7.85;;;;;;;3.30;97.25;101666.20;1766123;79;26356;-71
2022/01/26 10:39:26;;;;;;;14.65;7.85;;;;;;;3.31;97.29;101666.20;1758740;79;97519;-71
2022/01/26 10:41:54;;;;;;;13.78;8.05;;;;;;;3.31;97.20;101661.34;1760625;79;25899;-71
2022/01/26 10:44:30;;;;;;;14.87;8.43;;;;;;;3.31;97.15;101655.61;1752137;80;98457;-70
2022/01/26 10:47:04;;;;;;;18.75;8.68;;;;;;;3.29;97.08;101652.07;1761803;80;26235;-70
2022/01/26 10:52:35;;;;;;;14.38;8.25;;;;;;;3.28;97.03;101663.55;1758056;79;28056;-70
2022/01/26 10:54:58;;;;;;;18.05;7.95;;;;;;;3.25;97.02;101655.59;1763932;79;98609;-70
2022/01/26 10:57:25;;;;;;;15.95;8.10;;;;;;;3.25;97.00;101646.31;1764994;79;25703;-70
2022/01/26 10:59:52;;;;;;;15.35;7.83;;;;;;;3.25;96.98;101648.97;1758855;79;25784;-71
2022/01/26 11:02:27;;;;;;;17.10;9.10;;;;;;;3.23;96.92;101641.02;1767159;79;98451;-71
2022/01/26 11:04:47;;;;;;;17.95;8.08;;;;;;;3.24;96.89;101653.38;1763607;79;27445;-69
2022/01/26 11:07:15;;;;;;;15.43;7.53;;;;;;;3.24;96.88;101641.46;1754424;81;99067;-70
2022/01/26 11:09:47;;;;;;;21.68;9.65;;;;;;;3.25;96.88;101642.34;1759353;80;25533;-69
2022/01/26 11:12:16;;;;;;;14.83;7.75;;;;;;;3.25;96.80;101646.31;1755959;79;25821;-71
2022/01/26 11:14:47;;;;;;;17.23;8.00;;;;;;;3.28;96.81;101637.49;1760308;79;98722;-71
2022/01/26 11:17:36;;;;;;;12.60;6.70;;;;;;;3.32;96.85;101644.56;1761047;79;27350;-70
2022/01/26 11:20:31;;;;;;;12.53;6.53;;;;;;;3.37;96.83;101642.38;1751323;80;98467;-71
2022/01/26 11:22:55;;;;;;;11.93;6.85;;;;;;;3.36;96.75;101647.23;1753779;79;25761;-70
2022/01/26 11:25:24;;;;;;;10.65;5.65;;;;;;;3.37;96.67;101643.70;1751088;79;98990;-73
2022/01/26 11:27:52;;;;;;;12.53;6.22;;;;;;;3.40;96.65;101629.13;1675350;84;26366;-70
2022/01/26 11:30:32;;;;;;;9.18;4.95;;;;;;;3.44;96.62;101636.20;1685683;83;27324;-71
2022/01/26 11:33:14;;;;;;;8.48;4.35;;;;;;;3.47;96.51;101626.93;1675943;83;98695;-71
2022/01/26 11:35:46;;;;;;;12.55;5.00;;;;;;;3.48;96.35;101626.05;1678822;83;26416;-70
2022/01/26 11:47:19;;;;;;;8.45;3.98;;;;;;;3.47;96.00;101614.12;1714610;82;26226;-75
2022/01/26 11:49:47;;;;;;;7.62;4.15;;;;;;;3.48;95.87;101622.07;1704679;83;98262;-73
2022/01/26 11:52:26;;;;;;;5.00;3.22;;;;;;;3.47;95.67;101636.20;1699679;83;26529;-73
2022/01/26 11:54:56;;;;;;;7.67;3.90;;;;;;;3.46;95.44;101619.86;1709469;83;25693;-73
2022/01/26 11:57:44;;;;;;;7.30;3.98;;;;;;;3.47;95.31;101612.35;1708994;82;97997;-74
2022/01/26 12:00:17;;;;;;;14.83;4.60;;;;;;;3.50;95.26;101627.38;1678283;83;26013;-74
2022/01/26 12:05:20;;;;;;;4.92;2.90;;;;;;;3.63;95.09;101624.30;1715978;81;26352;-73
2022/01/26 12:07:59;;;;;;;7.00;3.22;;;;;;;3.66;94.88;101615.02;1714780;82;98266;-74
2022/01/26 12:10:29;;;;;;;5.70;3.58;;;;;;;3.63;94.62;101618.55;1680762;83;27575;-73
2022/01/26 12:13:05;;;;;;;7.47;3.20;;;;;;;3.62;94.46;101620.77;1705099;83;25846;-74
2022/01/26 12:15:47;;;;;;;10.15;3.42;;;;;;;3.66;94.37;101613.70;1711049;82;98165;-75
2022/01/26 12:33:44;;;;;;;6.92;3.25;;;;;;;3.75;93.06;101607.95;1701917;82;98700;-70
2022/01/26 12:38:14;;;;;;;10.82;3.95;;;;;;;3.71;92.75;101609.28;1702794;82;98668;-71
2022/01/26 12:43:57;;;;;;;7.45;3.75;;;;;;;3.66;92.77;101605.74;1704700;82;98896;-73
2022/01/26 12:46:27;;;;;;;7.00;3.90;;;;;;;3.63;92.78;101609.27;1709325;83;26313;-73
2022/01/26 12:49:07;;;;;;;7.45;4.08;;;;;;;3.58;92.47;101606.63;1703290;83;26235;-73
2022/01/26 12:51:44;;;;;;;6.60;3.80;;;;;;;3.53;92.43;101596.89;1702337;82;98567;-73
2022/01/26 12:54:10;;;;;;;6.40;3.75;;;;;;;3.47;92.38;101603.08;1705034;83;26586;-74
2022/01/26 12:56:38;;;;;;;8.60;4.20;;;;;;;3.39;92.29;101592.91;1706765;83;98382;-73
2022/01/26 12:59:12;;;;;;;8.10;4.40;;;;;;;3.35;92.39;101580.98;1710209;83;25884;-74
2022/01/26 13:01:40;;;;;;;7.55;4.53;;;;;;;3.30;92.42;101592.89;1706338;82;98477;-74
2022/01/26 13:04:10;;;;;;;9.35;4.25;;;;;;;3.25;92.42;101578.76;1707357;83;27376;-73
2022/01/26 13:06:46;;;;;;;10.43;5.35;;;;;;;3.18;92.40;101581.84;1710675;83;25782;-73
2022/01/26 13:09:27;;;;;;;9.15;4.83;;;;;;;3.15;92.58;101598.16;1702496;83;98553;-74
2022/01/26 13:11:55;;;;;;;9.80;4.90;;;;;;;3.11;92.53;101584.47;1704505;82;25941;-74
2022/01/26 13:14:31;;;;;;;7.72;4.10;;;;;;;3.05;92.55;101585.78;1706046;82;98357;-74
2022/01/26 13:20:30;;;;;;;10.15;4.25;;;;;;;2.89;92.67;101579.13;1709023;83;99071;-75
2022/01/26 13:23:06;;;;;;;7.40;4.42;;;;;;;2.85;92.84;101576.45;1704573;83;27435;-73
2022/01/26 13:28:23;;;;;;;8.75;4.47;;;;;;;2.80;93.02;101576.45;1703219;83;25912;-73
2022/01/26 13:30:55;;;;;;;9.63;4.70;;;;;;;2.76;93.10;101564.08;1700437;83;28080;-73
2022/01/26 13:36:23;;;;;;;9.45;4.58;;;;;;;2.74;93.29;101572.45;1705753;83;26512;-74
2022/01/26 13:41:22;;;;;;;10.68;5.62;;;;;;;2.72;93.47;101582.15;1707773;82;25756;-73
2022/01/26 13:49:17;;;;;;;13.15;5.65;;;;;;;2.71;93.70;101573.77;1705179;82;26032;-71
2022/01/26 13:51:59;;;;;;;13.05;5.25;;;;;;;2.69;93.65;101564.94;1703114;82;98867;-71
2022/01/26 13:57:07;;;;;;;12.37;5.72;;;;;;;2.67;93.77;101580.36;1705042;82;98525;-72